Time;durP1;ratioP1;P1;durP2;ratioP2;P2;SDS_P1;SDS_P2;PMS_P1;PMS_P2;Temp;Humidity;BMP_temperature;BMP_pressure;BME280_temperature;BME280_humidity;BME280_pressure;Samples;Min_cycle;Max_cycle;Signal;HPM_P1;HPM_P2
2022/04/16 00:01:55;;;;;;;19.35;13.55;;;;;;;8.64;73.61;103008.63;5022568;28;20041;-81
2022/04/16 00:04:21;;;;;;;20.35;13.65;;;;;;;8.64;73.49;103013.81;5020115;28;20240;-81
2022/04/16 00:06:47;;;;;;;22.35;14.68;;;;;;;8.65;73.67;103010.44;5022541;28;20049;-81
2022/04/16 00:09:12;;;;;;;17.95;13.52;;;;;;;8.63;73.65;103009.41;5022490;28;20260;-81
2022/04/16 00:11:38;;;;;;;19.83;13.48;;;;;;;8.64;73.93;103008.63;5010382;28;20252;-81
2022/04/16 00:14:04;;;;;;;19.02;13.20;;;;;;;8.61;74.03;103008.44;5025181;28;20018;-81
2022/04/16 00:16:30;;;;;;;20.65;13.82;;;;;;;8.58;74.31;103013.44;5026814;28;20028;-81
2022/04/16 00:18:58;;;;;;;21.30;13.88;;;;;;;8.57;73.97;103006.41;5025227;28;20026;-81
2022/04/16 00:21:26;;;;;;;17.95;13.32;;;;;;;8.55;74.28;103002.84;5025816;28;20284;-81
2022/04/16 00:23:52;;;;;;;19.75;14.35;;;;;;;8.53;74.39;103003.63;5026285;28;20120;-81
2022/04/16 00:26:17;;;;;;;19.65;13.35;;;;;;;8.53;74.36;103001.03;5023137;28;20248;-81
2022/04/16 00:28:42;;;;;;;18.85;13.75;;;;;;;8.48;74.49;103006.72;5025937;28;20041;-81
2022/04/16 00:31:08;;;;;;;20.65;14.15;;;;;;;8.47;74.38;103011.03;5024798;28;20059;-81
2022/04/16 00:33:33;;;;;;;19.33;14.35;;;;;;;8.48;74.92;103015.38;5024954;28;20018;-81
2022/04/16 00:36:02;;;;;;;20.38;14.82;;;;;;;8.46;74.64;103009.22;5025940;28;20014;-81
2022/04/16 00:38:28;;;;;;;21.17;14.45;;;;;;;8.45;74.80;103011.69;5025896;28;20348;-81
2022/04/16 00:40:53;;;;;;;20.90;14.68;;;;;;;8.39;74.91;103006.97;5025865;28;20172;-81
2022/04/16 00:43:22;;;;;;;19.08;13.70;;;;;;;8.39;74.84;103012.16;5024105;28;20237;-81
2022/04/16 00:45:48;;;;;;;;;;;;;;;8.49;73.80;103008.53;5026930;28;20039;-81
2022/04/16 00:48:13;;;;;;;21.38;14.23;;;;;;;8.41;75.20;103010.53;5025637;28;19925;-81
2022/04/16 00:50:39;;;;;;;21.38;14.10;;;;;;;8.35;75.41;103012.75;5024874;28;20049;-81
2022/04/16 00:53:05;;;;;;;21.77;14.90;;;;;;;8.32;75.44;103015.13;5025378;28;20076;-81
2022/04/16 00:55:36;;;;;;;21.30;14.90;;;;;;;8.31;75.73;103013.31;5025582;28;20084;-81
2022/04/16 00:58:01;;;;;;;21.33;14.95;;;;;;;8.28;75.86;103008.81;5024138;28;20022;-81
2022/04/16 01:00:27;;;;;;;20.98;15.23;;;;;;;8.25;75.68;103008.59;5024140;28;20045;-81
2022/04/16 01:02:52;;;;;;;21.92;15.52;;;;;;;8.24;76.16;103011.09;5025806;28;20314;-81
2022/04/16 01:05:19;;;;;;;21.60;15.38;;;;;;;8.22;75.95;103011.00;5025153;28;20154;-81
2022/04/16 01:08:04;;;;;;;22.88;15.43;;;;;;;8.24;75.79;103013.69;5024793;28;20052;-81
2022/04/16 01:10:31;;;;;;;22.13;15.40;;;;;;;8.20;75.99;103010.00;5022823;28;20033;-81
2022/04/16 01:12:58;;;;;;;23.98;15.20;;;;;;;8.18;76.40;103003.78;5025026;28;20095;-81
2022/04/16 01:15:24;;;;;;;24.58;15.25;;;;;;;8.16;75.72;103008.88;5013852;28;20092;-81
2022/04/16 01:17:51;;;;;;;22.77;15.68;;;;;;;8.14;76.51;103015.69;5023888;28;20265;-81
2022/04/16 01:20:18;;;;;;;21.40;15.43;;;;;;;8.12;76.08;103019.84;5024695;28;20068;-81
2022/04/16 01:22:45;;;;;;;24.20;16.52;;;;;;;8.07;76.15;103021.25;5023874;28;20333;-81
2022/04/16 01:25:10;;;;;;;22.20;15.88;;;;;;;8.04;76.77;103021.03;5022785;28;20030;-81
2022/04/16 01:27:36;;;;;;;24.42;16.50;;;;;;;8.03;77.15;103023.53;5023297;28;20040;-81
2022/04/16 01:30:05;;;;;;;24.42;16.35;;;;;;;8.00;76.52;103019.91;5021203;28;20275;-81
2022/04/16 01:32:32;;;;;;;25.38;16.77;;;;;;;8.03;76.76;103026.13;5015088;28;20037;-81
2022/04/16 01:34:59;;;;;;;24.00;15.73;;;;;;;8.03;76.39;103032.22;5022269;28;20044;-81
2022/04/16 01:37:31;;;;;;;23.38;15.52;;;;;;;7.98;76.26;103029.31;5018237;28;20157;-88
2022/04/16 01:39:57;;;;;;;23.50;15.52;;;;;;;7.95;76.52;103035.97;5017722;28;20010;-88
2022/04/16 01:42:23;;;;;;;24.35;16.05;;;;;;;7.93;76.69;103033.25;5021066;28;20033;-89
2022/04/16 01:44:49;;;;;;;23.70;15.80;;;;;;;7.91;77.01;103033.97;5017704;28;20014;-88
2022/04/16 01:47:15;;;;;;;23.17;16.50;;;;;;;7.90;76.84;103034.75;5018621;28;20025;-88
2022/04/16 01:49:40;;;;;;;21.50;15.32;;;;;;;7.86;77.17;103031.03;5018900;28;20079;-89
2022/04/16 01:52:06;;;;;;;23.65;16.20;;;;;;;7.84;76.96;103036.13;5015187;28;20046;-88
2022/04/16 01:54:31;;;;;;;23.98;16.40;;;;;;;7.83;77.16;103036.94;5017209;28;20274;-88
2022/04/16 01:56:56;;;;;;;24.75;15.85;;;;;;;7.82;77.26;103029.94;5023712;28;20077;-89
2022/04/16 01:59:21;;;;;;;24.85;16.17;;;;;;;7.80;77.08;103023.72;5023568;28;20030;-88
2022/04/16 02:01:47;;;;;;;25.77;16.58;;;;;;;7.79;77.10;103032.31;5020374;28;20045;-88
2022/04/16 02:04:13;;;;;;;24.63;16.25;;;;;;;7.77;77.29;103028.69;5015751;28;20010;-89
2022/04/16 02:06:38;;;;;;;24.33;16.88;;;;;;;7.75;77.44;103019.91;5021406;28;20927;-88
2022/04/16 02:09:03;;;;;;;24.25;16.95;;;;;;;7.72;77.92;103029.16;5021487;28;20037;-88
2022/04/16 02:11:30;;;;;;;24.33;16.58;;;;;;;7.69;78.36;103024.69;5012748;28;20041;-88
2022/04/16 02:13:55;;;;;;;26.15;16.88;;;;;;;7.66;78.68;103029.63;5013894;28;20010;-88
2022/04/16 02:16:21;;;;;;;26.90;17.42;;;;;;;7.66;77.74;103029.63;5015552;28;20025;-88
2022/04/16 02:18:46;;;;;;;24.65;16.08;;;;;;;7.65;77.91;103033.91;5014518;28;20065;-88
2022/04/16 02:21:11;;;;;;;25.48;16.50;;;;;;;7.65;77.63;103033.03;5013006;28;20038;-88
2022/04/16 02:23:37;;;;;;;26.38;16.92;;;;;;;7.64;77.96;103033.81;5018032;28;20153;-88
2022/04/16 02:26:06;;;;;;;27.23;17.23;;;;;;;7.61;77.99;103037.09;5020943;28;20010;-88
2022/04/16 02:28:32;;;;;;;23.73;15.68;;;;;;;7.59;77.94;103037.75;5008982;28;20029;-88
2022/04/16 02:30:57;;;;;;;24.25;16.13;;;;;;;7.55;78.01;103030.56;5016346;28;20015;-88
2022/04/16 02:33:22;;;;;;;26.42;16.77;;;;;;;7.53;77.91;103033.06;5017455;28;20076;-88
2022/04/16 02:35:48;;;;;;;24.75;16.90;;;;;;;7.48;78.22;103030.13;5012701;28;20271;-88
2022/04/16 02:38:13;;;;;;;24.25;16.65;;;;;;;7.47;78.00;103035.19;5014470;28;20252;-89
2022/04/16 02:40:39;;;;;;;27.02;16.05;;;;;;;7.47;77.36;103042.97;5012435;28;20049;-88
2022/04/16 02:43:04;;;;;;;25.50;16.25;;;;;;;7.47;77.70;103043.91;5018375;28;20632;-88
2022/04/16 02:48:17;;;;;;;23.73;16.23;;;;;;;7.42;77.21;103046.94;5016806;28;20032;-82
2022/04/16 02:50:42;;;;;;;23.80;15.93;;;;;;;7.37;77.37;103046.63;5021351;28;20030;-81
2022/04/16 02:53:08;;;;;;;23.77;15.95;;;;;;;7.34;77.82;103048.97;5016791;28;20318;-82
2022/04/16 02:55:33;;;;;;;27.50;16.20;;;;;;;7.30;77.88;103054.75;5011623;28;20073;-82
2022/04/16 02:57:59;;;;;;;26.38;16.88;;;;;;;7.27;77.94;103054.50;5013480;28;20312;-82
2022/04/16 03:00:26;;;;;;;24.13;16.20;;;;;;;7.26;77.95;103050.13;5021348;28;20052;-82
2022/04/16 03:02:52;;;;;;;27.77;17.27;;;;;;;7.29;78.23;103058.13;5010882;28;20225;-82
2022/04/16 03:05:18;;;;;;;25.33;16.80;;;;;;;7.26;78.21;103063.09;5015439;28;20097;-82
2022/04/16 03:07:44;;;;;;;27.45;17.27;;;;;;;7.21;77.47;103059.25;5022605;28;20013;-81
2022/04/16 03:10:10;;;;;;;26.65;16.83;;;;;;;7.22;77.70;103061.06;5022499;28;20022;-82
2022/04/16 03:12:42;;;;;;;25.80;17.15;;;;;;;7.18;77.31;103070.28;5023768;28;20199;-81
2022/04/16 03:17:54;;;;;;;27.58;17.10;;;;;;;7.13;77.48;103066.47;5010566;28;20060;-88
2022/04/16 03:20:20;;;;;;;25.52;16.38;;;;;;;7.08;77.68;103066.16;5016204;28;20025;-87
2022/04/16 03:22:45;;;;;;;24.95;15.88;;;;;;;7.07;77.95;103066.91;5018942;28;20030;-88
2022/04/16 03:25:11;;;;;;;27.85;16.80;;;;;;;7.02;77.70;103057.88;5015378;28;20117;-88
2022/04/16 03:27:39;;;;;;;24.75;16.25;;;;;;;6.97;77.62;103064.44;5019285;28;20081;-88
2022/04/16 03:30:06;;;;;;;26.88;16.80;;;;;;;6.93;78.31;103072.78;5013894;28;20028;-88
2022/04/16 03:32:31;;;;;;;26.55;16.40;;;;;;;6.89;78.50;103066.44;5015981;28;20034;-88
2022/04/16 03:34:57;;;;;;;27.23;16.92;;;;;;;6.87;78.67;103064.56;5020235;28;20083;-88
2022/04/16 03:37:24;;;;;;;25.63;16.60;;;;;;;6.85;78.15;103072.22;5021171;28;20048;-87
2022/04/16 03:39:50;;;;;;;26.67;16.83;;;;;;;6.77;78.52;103070.72;5021922;28;20088;-87
2022/04/16 03:42:18;;;;;;;28.27;17.02;;;;;;;6.76;79.05;103071.50;5022546;28;20024;-88
2022/04/16 03:44:43;;;;;;;29.88;17.33;;;;;;;6.76;78.89;103064.66;5021950;28;20018;-88
2022/04/16 03:47:10;;;;;;;27.52;17.67;;;;;;;6.76;79.52;103068.91;5023160;28;20254;-87
2022/04/16 03:49:35;;;;;;;26.58;16.60;;;;;;;6.75;79.37;103067.13;5021022;28;20098;-88
2022/04/16 03:52:00;;;;;;;26.00;17.15;;;;;;;6.73;79.96;103066.97;5016340;28;20013;-88
2022/04/16 04:00:00;;;;;;;26.65;16.38;;;;;;;6.72;80.73;103061.69;5021551;28;20021;-88
2022/04/16 04:02:30;;;;;;;26.60;16.95;;;;;;;6.73;80.48;103064.41;5023634;28;20033;-87
2022/04/16 04:04:56;;;;;;;30.73;18.10;;;;;;;6.72;79.91;103067.78;5022912;28;20037;-88
2022/04/16 04:07:21;;;;;;;27.10;17.30;;;;;;;6.69;79.67;103072.75;5016052;28;20041;-88
2022/04/16 04:09:47;;;;;;;28.23;17.15;;;;;;;6.68;79.84;103081.28;5021324;28;20022;-88
2022/04/16 04:12:13;;;;;;;29.20;17.67;;;;;;;6.68;80.10;103073.53;5018664;28;20022;-88
2022/04/16 04:14:41;;;;;;;29.92;18.42;;;;;;;6.65;80.70;103075.88;5020711;28;20014;-88
2022/04/16 04:17:08;;;;;;;27.58;17.33;;;;;;;6.65;80.06;103081.06;5019640;28;20060;-88
2022/04/16 04:19:38;;;;;;;26.58;17.13;;;;;;;6.59;79.95;103081.50;5024099;28;20025;-88
2022/04/16 04:22:04;;;;;;;28.63;17.35;;;;;;;6.56;80.34;103077.75;5022183;28;20033;-87
2022/04/16 04:24:30;;;;;;;26.73;16.90;;;;;;;6.52;79.68;103081.81;5019878;28;20048;-88
2022/04/16 04:26:59;;;;;;;29.40;17.67;;;;;;;6.52;79.98;103091.28;5015603;28;20017;-88
2022/04/16 04:29:29;;;;;;;30.10;18.20;;;;;;;6.50;81.43;103085.06;5023748;28;20072;-88
2022/04/16 04:31:56;;;;;;;28.63;17.83;;;;;;;6.49;81.08;103094.53;5016481;28;20029;-88
2022/04/16 04:34:21;;;;;;;28.45;18.50;;;;;;;6.47;81.32;103100.38;5018786;28;20022;-88
2022/04/16 04:36:47;;;;;;;28.90;17.23;;;;;;;6.47;80.45;103097.78;5010348;28;20010;-88
2022/04/16 04:39:13;;;;;;;27.13;17.02;;;;;;;6.41;79.73;103095.63;5023623;28;20069;-88
2022/04/16 04:41:43;;;;;;;25.65;17.17;;;;;;;6.40;79.68;103092.16;5021367;28;20203;-88
2022/04/16 04:44:15;;;;;;;26.73;16.88;;;;;;;6.39;79.98;103102.41;5022592;28;20041;-88
2022/04/16 04:46:42;;;;;;;29.00;17.75;;;;;;;6.38;80.15;103104.06;5018892;28;20105;-88
2022/04/16 04:49:07;;;;;;;27.83;17.20;;;;;;;6.38;79.48;103106.66;5020595;28;20346;-88
2022/04/16 04:51:36;;;;;;;30.77;18.17;;;;;;;6.37;80.14;103110.03;5021860;28;20034;-88
2022/04/16 04:54:02;;;;;;;30.80;17.67;;;;;;;6.37;80.81;103115.22;5022676;28;20032;-88
2022/04/16 04:56:28;;;;;;;27.70;17.40;;;;;;;6.35;80.40;103116.78;5021776;28;20033;-87
2022/04/16 04:58:53;;;;;;;29.60;17.63;;;;;;;6.34;80.32;103109.78;5013400;28;20010;-88
2022/04/16 05:01:19;;;;;;;32.42;18.17;;;;;;;6.31;80.22;103112.13;5016203;28;20028;-87
2022/04/16 05:03:44;;;;;;;31.48;18.45;;;;;;;6.32;80.76;103106.19;5014922;28;20038;-88
2022/04/16 05:06:09;;;;;;;30.48;17.83;;;;;;;6.31;80.26;103114.72;5018680;28;20025;-88
2022/04/16 05:08:34;;;;;;;30.25;18.27;;;;;;;6.30;81.01;103115.53;5021110;28;20029;-88
2022/04/16 05:11:00;;;;;;;28.88;17.52;;;;;;;6.32;80.36;103136.38;5019206;28;20168;-87
2022/04/16 05:13:25;;;;;;;29.63;18.40;;;;;;;6.33;80.46;103123.53;5022579;28;20013;-88
2022/04/16 05:15:50;;;;;;;32.50;18.73;;;;;;;6.35;80.50;103121.06;5015495;28;20160;-87
2022/04/16 05:18:15;;;;;;;31.00;18.35;;;;;;;6.36;80.63;103133.22;5018583;28;20028;-87
2022/04/16 05:20:41;;;;;;;32.58;19.08;;;;;;;6.35;81.14;103127.13;5020367;28;20028;-88
2022/04/16 05:23:06;;;;;;;32.60;20.05;;;;;;;6.36;82.04;103134.13;5011012;28;20180;-87
2022/04/16 05:25:31;;;;;;;33.92;20.52;;;;;;;6.37;83.06;103135.00;5020124;28;20092;-88
2022/04/16 05:27:56;;;;;;;33.60;20.90;;;;;;;6.39;83.13;103133.47;5015055;28;20021;-87
2022/04/16 05:30:23;;;;;;;32.28;19.60;;;;;;;6.39;81.93;103139.53;5019554;28;20026;-86
2022/04/16 05:32:50;;;;;;;35.35;21.13;;;;;;;6.40;83.08;103143.94;5013919;28;20129;-87
2022/04/16 05:35:16;;;;;;;34.38;21.08;;;;;;;6.39;83.76;103147.31;5020130;28;20022;-87
2022/04/16 05:37:42;;;;;;;37.13;21.33;;;;;;;6.42;84.41;103136.28;5019123;28;20028;-88
2022/04/16 05:40:09;;;;;;;37.28;21.30;;;;;;;6.44;84.26;103135.63;5019851;28;20294;-87
2022/04/16 05:42:42;;;;;;;37.50;22.23;;;;;;;6.48;84.48;103139.34;5017530;28;20014;-88
2022/04/16 05:45:08;;;;;;;38.60;22.83;;;;;;;6.50;84.51;103142.94;5013733;28;20059;-88
2022/04/16 05:47:34;;;;;;;41.35;23.00;;;;;;;6.51;84.50;103138.69;5014437;28;20380;-88
2022/04/16 05:49:59;;;;;;;37.80;22.60;;;;;;;6.52;84.83;103137.91;5020072;28;20018;-88
2022/04/16 05:52:25;;;;;;;38.47;22.88;;;;;;;6.54;85.13;103149.28;5019941;28;20045;-88
2022/04/16 05:54:52;;;;;;;37.67;22.33;;;;;;;6.56;85.29;103148.63;5023933;28;20074;-88
2022/04/16 05:57:21;;;;;;;38.88;22.08;;;;;;;6.61;85.23;103156.75;5022325;28;20063;-88
2022/04/16 05:59:46;;;;;;;;;;;;;;;6.71;83.16;103156.66;5021719;28;20006;-88
2022/04/16 06:02:12;;;;;;;37.53;20.70;;;;;;;6.72;84.93;103160.13;5023690;28;19971;-88
2022/04/16 06:04:37;;;;;;;37.17;21.73;;;;;;;6.74;84.93;103158.59;5023583;28;20261;-87
2022/04/16 06:07:02;;;;;;;37.78;22.10;;;;;;;6.79;85.36;103167.59;5024100;28;20025;-82
2022/04/16 06:09:28;;;;;;;38.30;22.85;;;;;;;6.81;85.41;103176.41;5024444;28;20229;-82
2022/04/16 06:12:03;;;;;;;39.08;23.60;;;;;;;6.86;85.26;103174.16;5017171;28;20161;-82
2022/04/16 06:14:29;;;;;;;39.97;23.58;;;;;;;6.88;85.40;103175.19;5021472;28;20018;-82
2022/04/16 06:16:54;;;;;;;40.58;24.00;;;;;;;6.94;85.92;103176.56;5014558;28;20045;-82
2022/04/16 06:19:20;;;;;;;41.95;24.17;;;;;;;6.98;86.11;103180.31;5024357;28;20017;-82
2022/04/16 06:21:45;;;;;;;41.42;24.40;;;;;;;7.04;85.73;103185.00;5019066;28;20030;-82
2022/04/16 06:24:10;;;;;;;43.05;25.40;;;;;;;7.07;86.34;103182.69;5020406;28;20037;-83
2022/04/16 06:26:35;;;;;;;38.80;23.63;;;;;;;7.12;86.51;103187.41;5019653;28;20057;-82
2022/04/16 06:29:01;;;;;;;40.63;23.88;;;;;;;7.21;86.51;103192.41;5010077;28;20265;-82
2022/04/16 06:31:26;;;;;;;43.83;24.77;;;;;;;7.28;86.22;103189.47;5018900;28;20080;-82
2022/04/16 06:33:51;;;;;;;43.38;24.20;;;;;;;7.36;86.05;103183.94;5017931;28;20018;-82
2022/04/16 06:36:17;;;;;;;43.38;24.83;;;;;;;7.44;86.74;103186.34;5016840;28;20017;-88
2022/04/16 06:38:42;;;;;;;42.92;24.17;;;;;;;7.66;86.13;103186.22;5018102;28;20084;-89
2022/04/16 06:41:08;;;;;;;43.33;25.95;;;;;;;9.49;82.08;103185.84;5019589;28;20017;-89
2022/04/16 06:43:33;;;;;;;37.45;22.35;;;;;;;11.91;72.81;103184.88;5024279;28;20176;-88
2022/04/16 06:45:58;;;;;;;36.05;22.35;;;;;;;14.08;65.04;103182.03;5022824;28;20172;-88
2022/04/16 06:48:23;;;;;;;39.63;22.25;;;;;;;15.78;59.53;103185.84;5022505;28;20041;-88
2022/04/16 06:50:49;;;;;;;33.90;21.10;;;;;;;17.03;54.98;103180.88;5022381;28;20060;-88
2022/04/16 06:53:15;;;;;;;32.45;20.48;;;;;;;17.97;51.89;103179.50;5017209;28;20018;-88
2022/04/16 06:55:40;;;;;;;32.67;20.65;;;;;;;18.66;49.02;103175.34;5020033;28;20014;-88
2022/04/16 06:58:06;;;;;;;33.28;20.90;;;;;;;17.74;51.09;103182.28;5018580;28;20025;-88
2022/04/16 07:00:31;;;;;;;33.38;21.00;;;;;;;16.31;55.37;103180.91;5018918;28;20021;-88
2022/04/16 07:02:56;;;;;;;35.95;22.33;;;;;;;15.05;58.76;103190.75;5020364;28;20018;-88
2022/04/16 07:05:22;;;;;;;38.90;21.67;;;;;;;14.10;61.04;103184.72;5023267;28;20022;-88
2022/04/16 07:07:47;;;;;;;33.60;21.77;;;;;;;13.33;64.47;103192.38;5022887;28;20323;-88
2022/04/16 07:10:12;;;;;;;36.15;22.90;;;;;;;12.75;65.83;103192.03;5020842;28;20086;-89
2022/04/16 07:12:38;;;;;;;38.95;22.88;;;;;;;12.33;68.57;103193.31;5012905;28;20268;-88
2022/04/16 07:15:05;;;;;;;37.50;22.50;;;;;;;11.99;69.62;103193.16;5018013;28;20018;-88
2022/04/16 07:17:30;;;;;;;38.33;22.73;;;;;;;11.71;70.98;103193.31;5011906;28;20029;-81
2022/04/16 07:19:55;;;;;;;36.58;21.75;;;;;;;11.50;71.83;103191.28;5022826;28;20026;-81
2022/04/16 07:22:21;;;;;;;35.38;22.27;;;;;;;11.34;71.42;103193.78;5019235;28;20093;-81
2022/04/16 07:24:48;;;;;;;44.25;23.52;;;;;;;11.22;73.39;103194.88;5015556;28;20029;-81
2022/04/16 07:27:14;;;;;;;35.65;21.60;;;;;;;11.14;72.55;103199.63;5022446;28;20029;-81
2022/04/16 07:29:39;;;;;;;38.33;22.10;;;;;;;11.10;73.58;103197.66;5020755;28;20013;-81
2022/04/16 07:32:05;;;;;;;35.05;21.52;;;;;;;11.09;72.52;103202.78;5019721;28;20017;-80
2022/04/16 07:34:30;;;;;;;35.03;20.83;;;;;;;11.07;74.00;103202.69;5020908;28;20025;-80
2022/04/16 07:36:55;;;;;;;35.78;22.13;;;;;;;11.09;74.28;103198.50;5022098;28;20268;-81
2022/04/16 07:39:21;;;;;;;38.45;22.60;;;;;;;11.13;74.23;103200.44;5021820;28;20061;-85
2022/04/16 07:41:47;;;;;;;35.60;21.52;;;;;;;11.18;74.45;103202.44;5018796;28;20036;-85
2022/04/16 07:44:12;;;;;;;36.17;21.67;;;;;;;11.22;74.97;103213.13;5023668;28;20272;-85
2022/04/16 07:46:38;;;;;;;36.92;21.00;;;;;;;11.25;74.36;103210.72;5023102;28;20032;-80
2022/04/16 07:49:03;;;;;;;35.00;21.40;;;;;;;11.28;74.73;103209.97;5018598;28;20027;-80
2022/04/16 07:51:29;;;;;;;34.42;20.52;;;;;;;11.27;73.23;103209.09;5019082;28;20029;-80
2022/04/16 07:53:56;;;;;;;35.67;20.20;;;;;;;11.26;73.40;103204.69;5023542;28;20092;-80
2022/04/16 07:56:21;;;;;;;30.02;18.77;;;;;;;11.27;72.75;103209.09;5022677;28;20349;-80
2022/04/16 07:58:47;;;;;;;32.85;20.27;;;;;;;11.28;73.13;103207.38;5022004;28;20018;-80
2022/04/16 08:01:13;;;;;;;33.38;19.50;;;;;;;11.29;73.32;103203.97;5021411;28;20014;-80
2022/04/16 08:03:38;;;;;;;36.90;20.67;;;;;;;11.29;72.69;103206.56;5009949;28;20026;-80
2022/04/16 08:06:04;;;;;;;31.52;19.77;;;;;;;11.29;72.93;103206.56;5022270;28;20026;-80
2022/04/16 08:08:29;;;;;;;33.22;20.80;;;;;;;11.32;72.59;103211.97;5021473;28;20026;-80
2022/04/16 08:10:56;;;;;;;33.25;19.48;;;;;;;11.34;72.66;103214.66;5021476;28;20033;-80
2022/04/16 08:13:21;;;;;;;32.78;19.48;;;;;;;11.35;72.87;103212.16;5023406;28;20022;-80
2022/04/16 08:15:48;;;;;;;30.52;19.42;;;;;;;11.40;73.17;103204.63;5021936;28;20101;-80
2022/04/16 08:18:14;;;;;;;31.92;19.27;;;;;;;11.47;73.24;103207.66;5022793;28;20030;-79
2022/04/16 08:20:40;;;;;;;30.50;18.95;;;;;;;11.56;72.47;103209.00;5022060;28;20048;-79
2022/04/16 08:23:06;;;;;;;30.77;19.45;;;;;;;11.61;71.44;103207.53;5023014;28;20176;-79
2022/04/16 08:28:03;;;;;;;29.33;18.95;;;;;;;11.70;72.25;103215.00;5023412;28;20273;-79
2022/04/16 08:30:28;;;;;;;30.45;18.35;;;;;;;11.72;70.77;103218.63;5021672;28;20269;-80
2022/04/16 08:32:54;;;;;;;30.60;19.42;;;;;;;11.77;71.34;103220.66;5021132;28;20036;-80
2022/04/16 08:35:19;;;;;;;29.13;18.55;;;;;;;11.84;71.81;103214.06;5023683;28;20017;-80
2022/04/16 08:37:46;;;;;;;32.20;19.25;;;;;;;11.91;70.94;103216.22;5025516;28;20287;-80
2022/04/16 08:40:12;;;;;;;28.35;18.15;;;;;;;11.96;70.70;103221.75;5022457;28;20014;-80
2022/04/16 08:42:40;;;;;;;28.73;18.10;;;;;;;12.02;70.80;103222.09;5025721;28;20025;-80
2022/04/16 08:45:08;;;;;;;30.00;18.45;;;;;;;12.06;69.29;103218.81;5025425;28;20025;-80
2022/04/16 08:47:34;;;;;;;28.40;18.33;;;;;;;12.14;71.13;103220.16;5025655;28;20060;-80
2022/04/16 08:50:00;;;;;;;30.15;18.77;;;;;;;12.23;71.34;103219.75;5025040;28;20034;-80
2022/04/16 08:52:33;;;;;;;27.77;17.77;;;;;;;12.28;69.37;103223.53;5009455;28;20025;-80
2022/04/16 08:54:59;;;;;;;27.83;18.60;;;;;;;12.32;68.77;103225.47;5026228;28;20033;-80
2022/04/16 08:57:25;;;;;;;28.20;17.00;;;;;;;12.40;68.80;103211.94;5025100;28;20030;-80
2022/04/16 08:59:52;;;;;;;23.58;15.35;;;;;;;12.48;68.84;103214.19;5024558;28;20021;-80
2022/04/16 09:02:19;;;;;;;26.00;17.08;;;;;;;12.60;69.70;103208.69;5024584;28;20022;-80
2022/04/16 09:04:46;;;;;;;26.48;16.45;;;;;;;12.64;67.49;103208.06;5025382;28;20102;-79
2022/04/16 09:07:11;;;;;;;24.92;16.25;;;;;;;12.71;69.09;103204.03;5025528;28;20029;-79
2022/04/16 09:09:37;;;;;;;26.90;17.27;;;;;;;12.79;68.09;103201.78;5023725;28;20088;-79
2022/04/16 09:12:02;;;;;;;25.13;16.75;;;;;;;12.88;67.78;103205.81;5023549;28;20022;-79
2022/04/16 09:14:35;;;;;;;25.48;16.48;;;;;;;12.99;69.43;103203.75;5025452;28;20176;-79
2022/04/16 09:17:01;;;;;;;25.38;15.60;;;;;;;13.09;68.28;103206.84;5023038;28;20029;-79
2022/04/16 09:19:29;;;;;;;25.45;15.93;;;;;;;13.18;68.04;103200.34;5023884;28;20018;-80
2022/04/16 09:21:55;;;;;;;23.90;15.35;;;;;;;13.29;66.67;103205.25;5024191;28;20053;-80
2022/04/16 09:24:20;;;;;;;20.52;13.55;;;;;;;13.34;64.80;103204.69;5024632;28;20032;-80
2022/04/16 09:26:48;;;;;;;19.17;13.05;;;;;;;13.40;66.10;103209.34;5025248;28;20057;-80
2022/04/16 09:29:16;;;;;;;21.20;13.65;;;;;;;13.41;62.28;103202.38;5023863;28;20284;-80
2022/04/16 09:31:45;;;;;;;20.73;13.13;;;;;;;13.45;64.96;103199.09;5023076;28;20024;-84
2022/04/16 09:34:19;;;;;;;19.80;13.00;;;;;;;13.49;65.27;103201.03;5023797;28;20022;-85
2022/04/16 09:36:45;;;;;;;19.08;12.30;;;;;;;13.58;63.75;103201.47;5015713;28;20021;-84
2022/04/16 09:39:11;;;;;;;20.10;12.93;;;;;;;13.68;63.62;103206.34;5025023;28;20033;-85
2022/04/16 09:41:41;;;;;;;18.27;12.13;;;;;;;13.77;62.65;103195.41;5016637;28;20026;-85
2022/04/16 09:44:18;;;;;;;17.40;11.65;;;;;;;13.81;61.05;103193.84;5023286;28;20018;-85
2022/04/16 09:46:47;;;;;;;17.98;11.68;;;;;;;13.89;60.51;103203.88;5023286;28;20092;-85
2022/04/16 09:49:14;;;;;;;;;;;;;;;13.97;64.27;103192.84;5024848;28;20109;-85
2022/04/16 09:51:42;;;;;;;17.17;11.25;;;;;;;14.01;58.58;103184.31;5023711;28;19901;-85
2022/04/16 09:54:09;;;;;;;17.27;10.63;;;;;;;14.04;61.41;103187.06;5023475;28;20164;-84
2022/04/16 09:56:38;;;;;;;14.35;8.70;;;;;;;14.05;57.26;103195.00;5024585;28;20029;-79
2022/04/16 09:59:08;;;;;;;14.95;9.82;;;;;;;14.08;58.78;103189.91;5023634;28;20018;-79
2022/04/16 10:01:35;;;;;;;13.50;9.07;;;;;;;14.07;58.27;103190.72;5024320;28;20085;-79
2022/04/16 10:04:01;;;;;;;10.85;6.68;;;;;;;14.08;57.20;103181.16;5023280;28;20025;-79
2022/04/16 10:06:30;;;;;;;12.30;8.32;;;;;;;14.14;59.31;103183.16;5023533;28;20044;-79
2022/04/16 10:08:56;;;;;;;;;;;;;;;14.20;61.55;103186.94;5024847;28;20093;-79
2022/04/16 10:12:59;;;;;;;14.77;9.38;;;;;;;14.29;57.94;103177.72;5023008;28;19924;-79
2022/04/16 10:14:54;;;;;;;11.93;6.75;;;;;;;14.36;55.64;103171.94;5023468;28;20064;-79
2022/04/16 10:17:28;;;;;;;12.52;7.40;;;;;;;14.41;56.59;103175.63;5039660;28;20279;-79
2022/04/16 10:19:54;;;;;;;13.02;8.45;;;;;;;14.47;55.33;103167.16;5024633;28;20164;-79
2022/04/16 10:22:27;;;;;;;14.30;9.30;;;;;;;14.53;56.13;103170.97;5022973;28;20075;-79
2022/04/16 10:24:59;;;;;;;11.23;7.47;;;;;;;14.59;54.12;103170.34;5023069;28;20037;-79
2022/04/16 10:27:29;;;;;;;12.38;7.80;;;;;;;14.63;55.00;103177.56;5021740;28;20022;-79
2022/04/16 10:30:01;;;;;;;11.15;6.80;;;;;;;14.68;55.91;103176.03;5023837;28;20029;-79
2022/04/16 10:32:40;;;;;;;8.60;5.55;;;;;;;14.72;53.50;103175.31;5021882;28;20089;-79
2022/04/16 10:35:12;;;;;;;8.57;6.20;;;;;;;14.76;55.11;103179.88;5023919;28;20029;-79
2022/04/16 10:37:39;;;;;;;9.70;6.57;;;;;;;14.88;55.58;103189.13;5023740;28;20032;-85
2022/04/16 10:40:17;;;;;;;9.30;5.97;;;;;;;14.95;55.03;103184.19;5023683;28;20137;-85
2022/04/16 10:42:59;;;;;;;9.25;6.28;;;;;;;15.03;54.76;103181.00;5021601;28;20017;-85
2022/04/16 10:45:25;;;;;;;9.50;6.82;;;;;;;15.10;53.82;103176.06;5023333;28;20029;-85
2022/04/16 10:47:53;;;;;;;10.82;6.65;;;;;;;15.14;51.91;103174.50;5022306;28;20014;-86
2022/04/16 10:50:20;;;;;;;8.98;6.35;;;;;;;15.17;52.21;103181.63;5020706;28;20116;-86
2022/04/16 10:52:56;;;;;;;10.43;6.90;;;;;;;15.20;53.38;103181.75;5021052;28;20020;-85
2022/04/16 10:55:30;;;;;;;10.98;6.75;;;;;;;15.23;52.07;103172.25;5021416;28;20073;-85
2022/04/16 10:57:59;;;;;;;8.70;5.97;;;;;;;15.32;53.95;103182.22;5019921;28;20109;-85
2022/04/16 11:00:35;;;;;;;8.90;6.40;;;;;;;15.36;53.22;103165.78;5020389;28;20085;-85
2022/04/16 11:03:11;;;;;;;10.10;6.93;;;;;;;15.39;51.19;103180.78;5016277;28;20020;-85
2022/04/16 11:05:37;;;;;;;9.02;6.38;;;;;;;15.42;53.16;103173.91;5023085;28;20032;-85
2022/04/16 11:08:02;;;;;;;9.07;6.40;;;;;;;15.48;53.34;103174.16;5021698;28;20017;-79
2022/04/16 11:10:28;;;;;;;9.95;7.05;;;;;;;15.56;51.77;103170.97;5023012;28;20059;-79
2022/04/16 11:12:54;;;;;;;10.25;7.15;;;;;;;15.60;52.21;103157.13;5022132;28;20026;-82
2022/04/16 11:15:24;;;;;;;10.13;7.10;;;;;;;15.65;52.08;103161.69;5023799;28;20064;-82
2022/04/16 11:18:01;;;;;;;10.70;7.97;;;;;;;15.68;52.05;103176.69;5023477;28;20010;-81
2022/04/16 11:20:27;;;;;;;9.43;6.90;;;;;;;15.71;51.80;103181.19;5021661;28;20249;-81
2022/04/16 11:22:53;;;;;;;10.30;7.03;;;;;;;15.71;49.98;103182.06;5022183;28;20034;-81
2022/04/16 11:25:23;;;;;;;9.50;7.20;;;;;;;15.63;48.72;103173.00;5022662;28;20026;-82
2022/04/16 11:36:06;;;;;;;10.35;7.25;;;;;;;15.68;49.80;103166.19;5022200;28;20172;-81
2022/04/16 11:38:34;;;;;;;9.75;7.30;;;;;;;15.69;49.60;103167.09;5021483;28;20014;-79